Time;durP1;ratioP1;P1;durP2;ratioP2;P2;SDS_P1;SDS_P2;PMS_P1;PMS_P2;Temp;Humidity;BMP_temperature;BMP_pressure;BME280_temperature;BME280_humidity;BME280_pressure;Samples;Min_cycle;Max_cycle;Signal;HPM_P1;HPM_P2
2022/10/08 00:01:07;;;;;;;8.85;3.05;;;10.60;99.90;;;;;;4842594;29;20038;-90
2022/10/08 00:03:40;;;;;;;3.95;2.40;;;10.60;99.90;;;;;;4837150;29;20046;-92
2022/10/08 00:06:10;;;;;;;4.47;2.47;;;10.70;99.90;;;;;;4845629;29;20106;-95
2022/10/08 00:08:58;;;;;;;8.57;2.90;;;10.70;99.90;;;;;;4841724;29;20145;-91
2022/10/08 00:11:33;;;;;;;4.15;2.38;;;10.80;99.90;;;;;;4842775;29;20046;-89
2022/10/08 00:14:02;;;;;;;5.60;2.60;;;10.80;99.90;;;;;;4837576;29;20985;-93
2022/10/08 00:16:31;;;;;;;6.50;2.47;;;10.90;99.90;;;;;;4840945;29;20095;-90
2022/10/08 00:19:00;;;;;;;4.38;2.35;;;11.00;99.90;;;;;;4850764;29;20033;-88
2022/10/08 00:21:30;;;;;;;5.78;2.90;;;11.00;99.90;;;;;;4862698;29;20075;-88
2022/10/08 00:24:17;;;;;;;6.75;2.53;;;11.10;99.90;;;;;;4835809;29;20053;-87
2022/10/08 00:26:52;;;;;;;10.48;2.60;;;11.20;99.90;;;;;;4847774;29;20041;-91
2022/10/08 00:29:20;;;;;;;5.45;2.97;;;11.30;99.90;;;;;;4843279;29;20094;-92
2022/10/08 00:31:48;;;;;;;9.07;2.75;;;11.30;99.90;;;;;;4841729;29;20022;-92
2022/10/08 00:34:17;;;;;;;6.22;2.40;;;11.40;99.90;;;;;;4841660;29;20126;-88
2022/10/08 00:36:46;;;;;;;10.73;2.67;;;;;;;;;;4827920;29;20046;-89
2022/10/08 00:39:13;;;;;;;;;;;11.40;99.90;;;;;;4851577;29;20040;-87
2022/10/08 00:41:41;;;;;;;7.88;3.17;;;11.60;99.90;;;;;;4910349;29;19907;-93
2022/10/08 00:44:44;;;;;;;8.77;3.03;;;11.50;99.90;;;;;;4915278;29;20028;-88
2022/10/08 00:47:31;;;;;;;12.43;2.90;;;12.20;99.90;;;;;;4912673;29;20060;-92
2022/10/08 00:50:32;;;;;;;5.93;2.67;;;11.80;99.90;;;;;;4913882;29;20040;-91
2022/10/08 00:53:25;;;;;;;10.45;2.97;;;11.90;99.90;;;;;;4907385;29;20091;-87
2022/10/08 00:56:30;;;;;;;12.75;3.05;;;11.90;99.90;;;;;;4900178;29;20052;-87
2022/10/08 00:59:22;;;;;;;10.18;2.65;;;12.00;99.90;;;;;;4901166;29;20029;-88
2022/10/08 01:02:08;;;;;;;8.77;2.50;;;12.10;99.90;;;;;;4880830;29;20037;-87
2022/10/08 01:04:38;;;;;;;8.88;2.50;;;12.10;99.90;;;;;;4871889;29;20025;-92
2022/10/08 01:07:24;;;;;;;6.88;2.85;;;12.10;99.90;;;;;;4880509;29;20176;-91
2022/10/08 01:10:21;;;;;;;8.05;2.85;;;12.10;99.90;;;;;;4861257;29;20048;-92
2022/10/08 01:13:12;;;;;;;10.15;2.95;;;12.10;99.90;;;;;;4875277;29;20051;-89
2022/10/08 01:15:55;;;;;;;7.60;2.70;;;12.20;99.90;;;;;;4875547;29;20029;-94
2022/10/08 01:18:33;;;;;;;6.45;3.28;;;12.30;99.90;;;;;;4874522;29;20037;-94
2022/10/08 01:21:17;;;;;;;11.52;2.92;;;12.30;99.90;;;;;;4872259;29;20499;-92
2022/10/08 01:24:13;;;;;;;5.65;2.88;;;12.30;99.90;;;;;;4857463;29;20074;-94
2022/10/08 01:26:59;;;;;;;6.88;2.75;;;12.30;99.90;;;;;;4873204;29;20411;-90
2022/10/08 01:29:40;;;;;;;11.38;3.03;;;12.30;99.90;;;;;;4865640;29;20065;-94
2022/10/08 01:32:15;;;;;;;14.13;3.05;;;12.40;99.90;;;;;;4886866;29;20036;-93
2022/10/08 01:34:48;;;;;;;6.43;2.83;;;12.30;99.90;;;;;;4894754;29;20059;-94
2022/10/08 01:37:27;;;;;;;13.75;3.00;;;12.30;99.90;;;;;;4894428;29;20120;-93
2022/10/08 01:39:58;;;;;;;7.80;2.72;;;12.30;99.90;;;;;;4913822;29;20039;-92
2022/10/08 01:42:26;;;;;;;6.80;2.80;;;12.20;99.90;;;;;;4904315;29;20044;-93
2022/10/08 01:45:00;;;;;;;10.13;3.10;;;12.20;99.90;;;;;;4887132;29;20025;-93
2022/10/08 01:47:29;;;;;;;11.52;3.15;;;12.40;99.90;;;;;;4889055;29;20033;-93
2022/10/08 01:49:56;;;;;;;7.50;3.00;;;;;;;;;;4890776;29;20047;-94
2022/10/08 01:52:49;;;;;;;7.38;2.78;;;12.30;99.90;;;;;;4901328;29;20033;-91
2022/10/08 01:55:23;;;;;;;6.95;2.90;;;12.30;99.90;;;;;;4896718;29;20032;-92
2022/10/08 01:57:50;;;;;;;12.40;3.00;;;12.30;99.90;;;;;;4900181;29;20040;-90
2022/10/08 02:00:16;;;;;;;7.03;3.05;;;12.30;99.90;;;;;;4902481;29;20032;-87
2022/10/08 02:02:42;;;;;;;6.68;2.70;;;12.40;99.90;;;;;;4904032;29;20029;-93
2022/10/08 02:05:10;;;;;;;11.35;3.10;;;12.40;99.90;;;;;;4901288;29;20111;-93
2022/10/08 02:07:50;;;;;;;4.93;2.60;;;12.40;99.90;;;;;;4919982;29;20040;-94
2022/10/08 02:10:22;;;;;;;10.90;2.83;;;12.50;99.90;;;;;;4905243;29;20043;-88
2022/10/08 02:12:48;;;;;;;4.55;2.45;;;;;;;;;;4914084;29;20028;-94
2022/10/08 02:15:27;;;;;;;5.47;2.60;;;12.50;99.90;;;;;;4899382;29;20028;-94
2022/10/08 02:17:57;;;;;;;;;;;12.50;99.90;;;;;;4898983;29;20134;-95
2022/10/08 02:20:31;;;;;;;7.65;2.55;;;13.20;99.90;;;;;;4897639;29;19919;-94
2022/10/08 02:23:15;;;;;;;6.75;2.63;;;12.50;99.90;;;;;;4901780;29;20032;-91
2022/10/08 02:26:07;;;;;;;6.88;2.85;;;12.60;99.90;;;;;;4914120;29;20048;-93
2022/10/08 02:28:48;;;;;;;7.57;2.50;;;12.50;99.90;;;;;;4927241;29;20036;-94
2022/10/08 02:31:36;;;;;;;8.23;2.63;;;12.50;99.90;;;;;;4914772;29;20100;-94
2022/10/08 02:34:18;;;;;;;8.40;2.88;;;12.50;99.90;;;;;;4903849;29;20506;-90
2022/10/08 02:36:48;;;;;;;11.98;2.85;;;12.60;99.90;;;;;;4898248;29;20071;-92
2022/10/08 02:39:18;;;;;;;7.00;2.65;;;12.60;99.90;;;;;;4895229;29;20409;-93
2022/10/08 02:41:56;;;;;;;5.57;2.47;;;12.60;99.90;;;;;;4897130;29;20032;-94
2022/10/08 02:44:32;;;;;;;5.18;2.40;;;12.60;99.90;;;;;;4901172;29;20469;-94
2022/10/08 02:47:01;;;;;;;9.07;2.65;;;12.60;99.90;;;;;;4896544;29;20043;-95
2022/10/08 02:49:32;;;;;;;9.65;2.88;;;12.70;99.90;;;;;;4910907;29;20036;-90
2022/10/08 02:52:01;;;;;;;7.60;2.75;;;12.60;99.90;;;;;;4907590;29;20029;-95
2022/10/08 02:54:32;;;;;;;8.10;3.13;;;12.60;99.90;;;;;;4902912;29;20036;-95
2022/10/08 02:57:08;;;;;;;9.18;2.80;;;12.50;99.90;;;;;;4915084;29;20093;-93
2022/10/08 02:59:35;;;;;;;9.95;3.10;;;;;;;;;;4898086;29;20033;-91
2022/10/08 03:02:02;;;;;;;5.40;2.60;;;12.60;99.90;;;;;;4897784;29;20066;-93
2022/10/08 03:04:30;;;;;;;7.13;2.72;;;12.60;99.90;;;;;;4905891;29;20029;-93
2022/10/08 03:06:58;;;;;;;7.70;2.38;;;12.70;99.90;;;;;;4901951;29;20024;-94
2022/10/08 03:09:25;;;;;;;6.20;2.72;;;;;;;;;;4912723;29;20039;-93
2022/10/08 03:11:51;;;;;;;5.68;2.63;;;;;;;;;;4900547;29;20040;-90
2022/10/08 03:14:19;;;;;;;7.07;2.90;;;12.70;99.90;;;;;;4906195;29;20029;-91
2022/10/08 03:16:46;;;;;;;13.48;3.65;;;12.70;99.90;;;;;;4909476;29;20079;-94
2022/10/08 03:19:15;;;;;;;7.25;2.67;;;12.50;99.90;;;;;;4905215;29;20037;-95
2022/10/08 03:21:42;;;;;;;5.97;2.42;;;12.50;99.90;;;;;;4899670;29;20032;-92
2022/10/08 03:24:13;;;;;;;10.93;3.13;;;12.50;99.90;;;;;;4901856;29;20064;-93
2022/10/08 03:26:40;;;;;;;8.00;2.70;;;12.50;99.90;;;;;;4900021;29;20024;-90
2022/10/08 03:29:07;;;;;;;9.00;2.40;;;12.60;99.90;;;;;;4903634;29;20039;-95
2022/10/08 03:31:33;;;;;;;13.32;3.17;;;;;;;;;;4901342;29;20044;-90
2022/10/08 03:33:59;;;;;;;5.40;2.40;;;12.60;99.90;;;;;;4901697;29;20024;-90
2022/10/08 03:36:24;;;;;;;5.60;2.58;;;12.50;99.90;;;;;;4897395;29;20075;-94
2022/10/08 03:38:51;;;;;;;3.40;2.20;;;12.60;99.90;;;;;;4899231;29;20025;-93
2022/10/08 03:41:30;;;;;;;;;;;;;;;;;;;;;
2022/10/08 03:43:59;;;;;;;10.82;2.38;;;12.70;99.90;;;;;;4893813;29;20039;-93
2022/10/08 03:46:27;;;;;;;5.22;2.35;;;;;;;;;;4896185;29;20506;-93
2022/10/08 03:48:53;;;;;;;5.43;2.33;;;12.80;99.90;;;;;;4897421;29;20058;-93
2022/10/08 03:51:20;;;;;;;4.85;2.10;;;12.90;99.90;;;;;;4898781;29;20044;-94
2022/10/08 03:53:46;;;;;;;5.97;2.60;;;12.80;99.90;;;;;;4893511;29;20494;-94
2022/10/08 03:56:18;;;;;;;8.10;2.38;;;12.80;99.90;;;;;;4893684;29;20406;-93
2022/10/08 03:58:44;;;;;;;4.93;1.98;;;;;;;;;;4898284;29;20033;-93
2022/10/08 04:01:16;;;;;;;7.82;2.55;;;12.90;99.90;;;;;;4897969;29;20024;-90
2022/10/08 04:03:44;;;;;;;5.72;2.38;;;12.90;99.90;;;;;;4896996;29;20073;-93
2022/10/08 04:06:10;;;;;;;2.15;1.85;;;;;;;;;;4898202;29;20024;-95
2022/10/08 04:08:36;;;;;;;3.83;2.13;;;;;;;;;;4896978;29;20394;-93
2022/10/08 04:11:10;;;;;;;6.78;2.40;;;12.90;99.90;;;;;;4898051;29;20040;-91
2022/10/08 04:13:37;;;;;;;6.05;2.30;;;12.90;99.90;;;;;;4897291;29;20057;-91
2022/10/08 04:16:05;;;;;;;6.28;2.42;;;12.90;99.90;;;;;;4912887;29;20032;-93
2022/10/08 04:18:32;;;;;;;8.90;2.20;;;12.90;99.90;;;;;;4913004;29;20021;-91
2022/10/08 04:21:04;;;;;;;4.35;2.10;;;13.00;99.90;;;;;;4894783;29;20040;-93
2022/10/08 04:23:32;;;;;;;6.43;2.40;;;13.00;99.90;;;;;;4897313;29;20067;-91
2022/10/08 04:25:58;;;;;;;7.18;2.38;;;12.20;99.90;;;;;;4897691;29;20111;-93
2022/10/08 04:28:24;;;;;;;4.63;1.92;;;;;;;;;;4896800;29;20029;-89
2022/10/08 04:31:05;;;;;;;7.40;2.38;;;13.00;99.90;;;;;;4897492;29;20045;-93
2022/10/08 04:33:33;;;;;;;5.97;2.38;;;13.00;99.90;;;;;;4896895;29;20409;-92
2022/10/08 04:35:59;;;;;;;6.40;2.13;;;12.90;99.90;;;;;;4896654;29;20029;-94
2022/10/08 04:38:25;;;;;;;4.07;1.83;;;;;;;;;;4903696;29;20033;-93
2022/10/08 04:41:22;;;;;;;4.60;2.20;;;12.90;99.90;;;;;;4913297;29;20024;-92
2022/10/08 04:43:48;;;;;;;5.72;2.03;;;;;;;;;;4897251;29;20048;-92
2022/10/08 04:46:16;;;;;;;7.00;2.17;;;12.90;99.90;;;;;;4901675;29;20039;-92
2022/10/08 04:48:50;;;;;;;6.72;2.00;;;12.90;99.90;;;;;;4897653;29;20111;-93
2022/10/08 04:51:17;;;;;;;7.63;2.20;;;12.80;99.90;;;;;;4896267;29;20104;-93
2022/10/08 04:53:43;;;;;;;7.00;2.30;;;12.80;99.90;;;;;;4897845;29;20434;-94
2022/10/08 04:56:18;;;;;;;7.55;1.98;;;12.90;99.90;;;;;;4897527;29;20020;-90
2022/10/08 04:58:45;;;;;;;4.63;2.13;;;12.90;99.90;;;;;;4903553;29;20031;-88
2022/10/08 05:01:26;;;;;;;6.10;2.33;;;13.00;99.90;;;;;;4919007;29;20036;-87
2022/10/08 05:04:16;;;;;;;6.32;1.95;;;12.90;99.90;;;;;;4920095;29;20045;-87
2022/10/08 05:06:44;;;;;;;7.45;2.20;;;;;;;;;;4919747;29;20079;-88
2022/10/08 05:09:14;;;;;;;9.05;2.25;;;12.90;99.90;;;;;;4920390;29;20032;-87
2022/10/08 05:11:40;;;;;;;6.60;2.50;;;12.90;99.90;;;;;;4915756;29;20098;-87
2022/10/08 05:14:19;;;;;;;5.38;2.55;;;12.90;99.90;;;;;;4901648;29;20056;-88
2022/10/08 05:16:54;;;;;;;6.63;2.50;;;12.90;99.90;;;;;;4901071;29;20049;-88
2022/10/08 05:19:23;;;;;;;7.55;2.42;;;;;;;;;;4899435;29;20037;-87
2022/10/08 05:22:09;;;;;;;5.60;2.47;;;12.90;99.90;;;;;;4918081;29;20092;-87
2022/10/08 05:25:33;;;;;;;4.80;2.58;;;12.90;99.90;;;;;;4917380;29;20288;-88
2022/10/08 05:28:24;;;;;;;6.32;2.92;;;12.90;99.90;;;;;;4885735;29;20049;-88
2022/10/08 05:30:50;;;;;;;9.40;2.40;;;;;;;;;;4913725;29;20059;-95
2022/10/08 05:33:16;;;;;;;3.28;2.22;;;;;;;;;;4922739;29;20035;-94
2022/10/08 05:35:42;;;;;;;4.65;2.53;;;12.90;99.90;;;;;;4928421;29;20072;-95
2022/10/08 05:38:13;;;;;;;6.75;2.58;;;12.80;99.90;;;;;;4925242;29;20061;-95
2022/10/08 05:40:39;;;;;;;4.32;2.35;;;;;;;;;;4903643;29;20470;-93
2022/10/08 05:43:04;;;;;;;8.55;2.60;;;12.80;99.90;;;;;;4914296;29;20044;-93
2022/10/08 05:45:30;;;;;;;5.20;2.35;;;12.80;99.90;;;;;;4892977;29;20032;-93
2022/10/08 05:47:56;;;;;;;9.80;2.50;;;12.80;99.90;;;;;;4913093;29;20552;-92
2022/10/08 05:50:21;;;;;;;6.50;2.78;;;12.80;99.90;;;;;;4920105;29;20055;-92
2022/10/08 05:52:47;;;;;;;4.07;2.20;;;12.70;99.90;;;;;;4905720;29;20356;-95
2022/10/08 05:55:13;;;;;;;5.20;2.13;;;12.80;99.90;;;;;;4924494;29;20032;-95
2022/10/08 05:57:39;;;;;;;6.47;2.58;;;;;;;;;;4919672;29;20032;-94
2022/10/08 06:00:07;;;;;;;6.32;2.30;;;12.70;99.90;;;;;;4922583;29;20039;-93
2022/10/08 06:02:33;;;;;;;3.63;2.40;;;12.60;99.90;;;;;;4927598;29;20032;-91
2022/10/08 06:04:59;;;;;;;4.82;2.50;;;12.50;99.90;;;;;;4901540;29;20520;-91
2022/10/08 06:07:25;;;;;;;6.03;2.40;;;;;;;;;;4900047;29;20033;-91
2022/10/08 06:09:51;;;;;;;5.55;2.50;;;12.50;99.90;;;;;;4906092;29;20052;-95
2022/10/08 06:12:25;;;;;;;6.28;2.60;;;12.40;99.90;;;;;;4903717;29;20088;-94
2022/10/08 06:14:51;;;;;;;9.30;2.53;;;;;;;;;;4900551;29;20032;-94
2022/10/08 06:17:17;;;;;;;6.38;2.30;;;12.30;99.90;;;;;;4903485;29;20028;-94
2022/10/08 06:19:43;;;;;;;5.05;2.45;;;;;;;;;;4897977;29;20032;-93
2022/10/08 06:22:09;;;;;;;8.02;2.70;;;;;;;;;;4909753;29;20044;-91
2022/10/08 06:24:35;;;;;;;6.63;2.30;;;12.20;99.90;;;;;;4895064;29;20028;-92
2022/10/08 06:27:01;;;;;;;6.75;2.30;;;;;;;;;;4894889;29;20035;-90
2022/10/08 06:29:27;;;;;;;5.50;2.53;;;12.10;99.90;;;;;;4897663;29;20115;-91
2022/10/08 06:31:52;;;;;;;4.95;2.60;;;12.00;99.90;;;;;;4892222;29;20078;-91
2022/10/08 06:34:21;;;;;;;6.57;3.03;;;11.90;99.90;;;;;;4897018;29;20477;-92
2022/10/08 06:36:47;;;;;;;7.75;2.55;;;;;;;;;;4894124;29;20032;-92
2022/10/08 06:39:17;;;;;;;5.43;2.50;;;11.90;99.90;;;;;;4903533;29;20032;-90
2022/10/08 06:41:43;;;;;;;5.45;2.47;;;;;;;;;;4885336;29;20040;-91
2022/10/08 06:44:12;;;;;;;7.50;2.63;;;11.50;99.90;;;;;;4889927;29;20041;-90
2022/10/08 06:46:39;;;;;;;10.48;2.90;;;;;;;;;;4908895;29;20045;-90
2022/10/08 06:49:06;;;;;;;3.90;2.50;;;11.90;99.90;;;;;;4896676;29;20040;-91
2022/10/08 06:51:32;;;;;;;5.40;2.53;;;11.80;99.90;;;;;;4903049;29;20486;-87
2022/10/08 06:53:59;;;;;;;6.90;2.30;;;;;;;;;;4897122;29;20035;-91
2022/10/08 06:56:25;;;;;;;7.95;3.00;;;;;;;;;;4889411;29;20037;-91
2022/10/08 06:58:51;;;;;;;5.75;2.70;;;12.00;99.90;;;;;;4896531;29;20041;-90
2022/10/08 07:01:25;;;;;;;4.85;3.00;;;12.20;99.90;;;;;;4888321;29;20064;-92
2022/10/08 07:03:56;;;;;;;5.80;2.72;;;12.20;99.90;;;;;;4895703;29;20139;-89
2022/10/08 07:06:23;;;;;;;5.20;2.60;;;;;;;;;;4887593;29;20335;-90
2022/10/08 07:08:57;;;;;;;8.45;2.80;;;12.30;99.90;;;;;;4893132;29;20037;-92
2022/10/08 07:11:29;;;;;;;9.07;3.22;;;12.40;99.90;;;;;;4897462;29;20065;-91
2022/10/08 07:13:57;;;;;;;9.15;3.00;;;12.60;99.90;;;;;;4902406;29;20115;-91
2022/10/08 07:16:32;;;;;;;6.90;3.40;;;12.50;99.90;;;;;;4918670;29;20036;-91
2022/10/08 07:19:02;;;;;;;7.65;3.20;;;12.70;99.90;;;;;;4923549;29;20029;-87
2022/10/08 07:21:29;;;;;;;6.90;3.00;;;12.60;99.90;;;;;;4901530;29;20127;-90
2022/10/08 07:23:58;;;;;;;6.00;3.30;;;12.60;99.90;;;;;;4903092;29;20032;-89
2022/10/08 07:26:26;;;;;;;11.52;2.70;;;12.60;99.90;;;;;;4891999;29;20096;-89
2022/10/08 07:29:04;;;;;;;6.63;2.70;;;12.70;99.90;;;;;;4892803;29;20037;-88
2022/10/08 07:31:33;;;;;;;6.95;2.60;;;12.80;99.90;;;;;;4898972;29;20124;-90
2022/10/08 07:34:01;;;;;;;6.00;2.65;;;12.90;99.90;;;;;;4895649;29;20036;-88
2022/10/08 07:36:28;;;;;;;5.70;2.85;;;12.90;99.90;;;;;;4899272;29;20040;-90
2022/10/08 07:39:04;;;;;;;9.50;3.03;;;12.80;99.90;;;;;;4893970;29;20084;-89
2022/10/08 07:41:30;;;;;;;4.68;2.40;;;12.90;99.90;;;;;;4896721;29;20055;-90
2022/10/08 07:43:58;;;;;;;8.15;2.83;;;12.90;99.90;;;;;;4893158;29;20044;-90
2022/10/08 07:46:26;;;;;;;8.23;2.97;;;13.00;99.90;;;;;;4893315;29;20201;-89
2022/10/08 07:48:53;;;;;;;5.93;2.60;;;;;;;;;;4892972;29;20032;-90
2022/10/08 07:51:19;;;;;;;6.63;3.13;;;13.10;99.90;;;;;;4890389;29;20044;-89
2022/10/08 07:53:46;;;;;;;6.32;2.80;;;;;;;;;;4897322;29;20419;-89
2022/10/08 07:56:17;;;;;;;6.88;2.63;;;13.30;99.90;;;;;;4896597;29;20033;-91
2022/10/08 07:58:44;;;;;;;7.82;2.35;;;;;;;;;;4891245;29;20224;-89
2022/10/08 08:01:13;;;;;;;7.47;2.30;;;13.40;99.90;;;;;;4893500;29;20036;-91
2022/10/08 08:03:39;;;;;;;11.82;2.55;;;13.30;99.90;;;;;;4886839;29;20478;-89
2022/10/08 08:06:10;;;;;;;9.88;2.45;;;13.40;99.90;;;;;;4879039;29;20037;-90
2022/10/08 08:08:38;;;;;;;10.60;2.67;;;13.50;99.90;;;;;;4879495;29;20382;-89
2022/10/08 08:11:05;;;;;;;7.97;2.22;;;13.50;99.90;;;;;;4882225;29;20572;-89
2022/10/08 08:13:32;;;;;;;12.32;2.70;;;13.50;99.90;;;;;;4910623;29;20060;-89
2022/10/08 08:16:00;;;;;;;7.40;2.33;;;13.50;99.90;;;;;;4885007;29;20516;-86
2022/10/08 08:18:35;;;;;;;10.90;2.75;;;13.50;99.90;;;;;;4895948;29;20024;-88
2022/10/08 08:21:06;;;;;;;10.55;2.47;;;13.60;99.90;;;;;;4897245;29;20036;-88
2022/10/08 08:23:40;;;;;;;10.82;2.42;;;13.70;99.90;;;;;;4897136;29;20040;-90
2022/10/08 08:26:12;;;;;;;14.57;2.58;;;13.70;99.90;;;;;;4896506;29;20060;-89
2022/10/08 08:28:38;;;;;;;12.95;2.63;;;;;;;;;;4896009;29;20071;-88
2022/10/08 08:31:13;;;;;;;8.82;2.30;;;13.70;99.90;;;;;;4897054;29;20032;-87
2022/10/08 08:33:39;;;;;;;9.13;2.35;;;13.70;99.90;;;;;;4895166;29;20168;-87
2022/10/08 08:36:05;;;;;;;10.23;2.15;;;;;;;;;;4895823;29;20107;-88
2022/10/08 08:38:34;;;;;;;13.07;2.60;;;13.90;99.90;;;;;;4897126;29;20064;-89
2022/10/08 08:41:30;;;;;;;9.25;2.20;;;13.90;99.90;;;;;;4894961;29;20505;-90
2022/10/08 08:44:32;;;;;;;14.85;2.60;;;13.90;99.90;;;;;;4896531;29;20437;-89
2022/10/08 08:47:11;;;;;;;11.95;2.55;;;13.90;99.90;;;;;;4861114;29;20033;-92
2022/10/08 08:50:37;;;;;;;;;;;;;;;;;;;;;
2022/10/08 08:53:09;;;;;;;14.93;2.17;;;14.20;99.90;;;;;;4869917;29;20044;-92
2022/10/08 08:55:42;;;;;;;13.13;2.30;;;13.90;99.90;;;;;;4878350;29;20033;-89
2022/10/08 08:58:38;;;;;;;11.75;2.15;;;14.20;99.90;;;;;;4897654;29;20033;-89
2022/10/08 09:01:07;;;;;;;14.93;2.50;;;14.30;99.90;;;;;;4912813;29;20031;-88
2022/10/08 09:03:40;;;;;;;13.88;2.30;;;14.30;99.90;;;;;;4897163;29;20033;-93
2022/10/08 09:06:12;;;;;;;9.05;2.30;;;14.40;99.90;;;;;;4895310;29;20092;-90
2022/10/08 09:08:57;;;;;;;19.45;2.88;;;14.30;99.90;;;;;;4896571;29;20390;-91
2022/10/08 09:11:23;;;;;;;13.75;2.03;;;;;;;;;;4895381;29;20056;-88
2022/10/08 09:14:02;;;;;;;15.73;2.22;;;14.40;99.90;;;;;;4895855;29;20021;-89
2022/10/08 09:16:28;;;;;;;15.10;2.67;;;14.50;99.90;;;;;;4894909;29;20040;-90
2022/10/08 09:18:54;;;;;;;10.25;2.47;;;14.60;99.90;;;;;;4895223;29;20025;-90
2022/10/08 09:21:20;;;;;;;12.07;2.35;;;;;;;;;;4896199;29;20093;-90
2022/10/08 09:23:52;;;;;;;13.27;2.00;;;14.70;99.90;;;;;;4895168;29;20040;-92
2022/10/08 09:26:36;;;;;;;14.45;2.22;;;14.70;99.90;;;;;;4895355;29;20027;-91
2022/10/08 09:29:04;;;;;;;14.20;2.22;;;14.80;99.90;;;;;;4895512;29;20080;-91
2022/10/08 09:32:03;;;;;;;12.85;2.20;;;14.70;99.90;;;;;;4895443;29;20044;-92
2022/10/08 09:34:37;;;;;;;14.85;1.98;;;14.90;99.90;;;;;;4856663;29;20109;-92
2022/10/08 09:37:13;;;;;;;15.02;2.40;;;14.80;99.90;;;;;;4835161;29;20127;-92
2022/10/08 09:44:07;;;;;;;13.02;2.38;;;14.90;99.90;;;;;;4884493;29;20028;-95
2022/10/08 11:00:10;;;;;;;;;;;;;;;;;;;;;
2022/10/08 11:07:05;;;;;;;;;;;;;;;;;;;;;
2022/10/08 11:10:03;;;;;;;8.70;1.80;;;15.80;99.90;;;;;;4650689;30;20037;-92
2022/10/08 11:13:01;;;;;;;11.07;2.10;;;15.80;99.90;;;;;;4683589;30;20047;-95
2022/10/08 11:15:44;;;;;;;8.90;1.67;;;15.80;99.90;;;;;;4697569;30;20038;-95
2022/10/08 11:18:27;;;;;;;11.35;1.90;;;16.00;99.90;;;;;;4730195;29;20464;-93
2022/10/08 11:21:24;;;;;;;6.32;1.70;;;16.00;99.90;;;;;;4794307;29;20039;-94
2022/10/08 11:24:20;;;;;;;10.88;1.63;;;16.00;99.90;;;;;;4863363;29;20036;-92
2022/10/08 11:30:34;;;;;;;6.75;1.85;;;16.10;99.90;;;;;;4879107;29;20108;-93
2022/10/08 11:33:00;;;;;;;7.72;1.63;;;;;;;;;;4892193;29;20045;-90
2022/10/08 11:35:49;;;;;;;5.30;1.60;;;16.00;99.90;;;;;;4887460;29;20049;-93
2022/10/08 11:38:35;;;;;;;10.10;1.88;;;15.80;99.90;;;;;;4877340;29;20037;-92
2022/10/08 11:41:28;;;;;;;7.38;1.42;;;15.70;99.90;;;;;;4881044;29;20121;-92
2022/10/08 11:44:27;;;;;;;;;;;;;;;;;;;;;
2022/10/08 11:47:33;;;;;;;7.63;1.38;;;16.00;99.90;;;;;;4882210;29;20150;-94
2022/10/08 11:50:06;;;;;;;7.65;1.30;;;;;;;;;;4897040;29;20500;-93
2022/10/08 11:52:34;;;;;;;10.27;1.60;;;16.10;99.90;;;;;;4897541;29;20056;-90
2022/10/08 11:55:03;;;;;;;4.60;1.15;;;;;;;;;;4898280;29;20118;-92
2022/10/08 11:57:34;;;;;;;8.30;3.90;;;16.00;99.90;;;;;;4896117;29;20477;-95
2022/10/08 12:00:23;;;;;;;6.45;1.90;;;16.00;99.90;;;;;;4896198;29;20037;-91
2022/10/08 12:02:59;;;;;;;9.52;3.90;;;16.00;99.90;;;;;;4897228;29;20040;-91
2022/10/08 12:05:25;;;;;;;12.07;1.88;;;;;;;;;;4897101;29;20029;-91
2022/10/08 12:08:01;;;;;;;8.27;1.45;;;15.90;99.90;;;;;;4896034;29;20032;-93
2022/10/08 12:10:36;;;;;;;7.05;1.70;;;15.90;99.90;;;;;;4897251;29;20512;-92
2022/10/08 12:13:11;;;;;;;8.90;1.70;;;16.20;99.90;;;;;;4898031;29;20087;-94
2022/10/08 12:24:49;;;;;;;;;;;;;;;;;;;;;
2022/10/08 12:27:48;;;;;;;;;;;;;;;;;;;;;
2022/10/08 12:30:45;;;;;;;5.53;1.30;;;15.80;99.90;;;;;;4872711;29;20093;-93
2022/10/08 12:33:18;;;;;;;9.68;1.90;;;;;;;;;;4808167;29;20097;-90
2022/10/08 13:28:22;;;;;;;;;;;;;;;;;;;;;
